sensor_id;sensor_type;location;lat;lon;timestamp;pressure;altitude;pressure_sealevel;temperature;humidity
80853;BME280;70270;43.434;28.338;2023-09-19T00:01:31;100500.47;;;22.73;47.74
80853;BME280;70270;43.434;28.338;2023-09-19T00:04:16;100515.44;;;22.82;47.79
80853;BME280;70270;43.434;28.338;2023-09-19T00:07:00;100405.78;;;22.15;47.88
80853;BME280;70270;43.434;28.338;2023-09-19T00:09:46;100505.44;;;22.76;47.91
80853;BME280;70270;43.434;28.338;2023-09-19T00:12:31;100506.75;;;22.63;48.13
80853;BME280;70270;43.434;28.338;2023-09-19T00:15:15;100504.28;;;22.62;48.29
80853;BME280;70270;43.434;28.338;2023-09-19T00:18:01;100512.84;;;22.60;48.28
80853;BME280;70270;43.434;28.338;2023-09-19T00:20:46;100513.94;;;22.54;48.27
80853;BME280;70270;43.434;28.338;2023-09-19T00:23:34;100507.56;;;22.54;48.53
80853;BME280;70270;43.434;28.338;2023-09-19T00:26:18;100497.06;;;22.56;48.41
80853;BME280;70270;43.434;28.338;2023-09-19T00:29:06;100498.44;;;22.53;48.34
80853;BME280;70270;43.434;28.338;2023-09-19T00:31:52;100490.44;;;22.57;48.66
80853;BME280;70270;43.434;28.338;2023-09-19T00:34:37;100494.31;;;22.51;48.81
80853;BME280;70270;43.434;28.338;2023-09-19T00:37:21;100491.53;;;22.51;48.90
80853;BME280;70270;43.434;28.338;2023-09-19T00:40:07;100491.53;;;22.51;49.24
80853;BME280;70270;43.434;28.338;2023-09-19T00:42:58;100487.66;;;22.52;49.08
80853;BME280;70270;43.434;28.338;2023-09-19T00:45:46;100500.09;;;22.49;49.10
80853;BME280;70270;43.434;28.338;2023-09-19T00:48:40;100455.53;;;22.25;48.84
80853;BME280;70270;43.434;28.338;2023-09-19T00:51:27;100478.78;;;22.39;48.83
80853;BME280;70270;43.434;28.338;2023-09-19T00:54:13;100468.81;;;22.33;49.06
80853;BME280;70270;43.434;28.338;2023-09-19T00:57:02;100477.13;;;22.38;48.98
80853;BME280;70270;43.434;28.338;2023-09-19T00:59:48;100492.91;;;22.48;49.18
80853;BME280;70270;43.434;28.338;2023-09-19T01:02:35;100472.13;;;22.35;49.13
80853;BME280;70270;43.434;28.338;2023-09-19T01:05:19;100394.63;;;21.90;49.11
80853;BME280;70270;43.434;28.338;2023-09-19T01:08:04;100481.56;;;22.45;49.27
80853;BME280;70270;43.434;28.338;2023-09-19T01:10:55;100492.34;;;22.51;49.17
80853;BME280;70270;43.434;28.338;2023-09-19T01:17:09;100464.34;;;22.27;49.22
80853;BME280;70270;43.434;28.338;2023-09-19T01:20:19;100407.34;;;21.96;49.23
80853;BME280;70270;43.434;28.338;2023-09-19T01:32:06;100473.19;;;22.24;48.84
80853;BME280;70270;43.434;28.338;2023-09-19T01:34:51;100469.88;;;22.22;49.06
80853;BME280;70270;43.434;28.338;2023-09-19T01:37:37;100476.47;;;22.16;49.18
80853;BME280;70270;43.434;28.338;2023-09-19T01:40:22;100381.44;;;21.55;49.25
80853;BME280;70270;43.434;28.338;2023-09-19T01:43:23;100479.19;;;22.06;49.60
80853;BME280;70270;43.434;28.338;2023-09-19T01:46:18;100476.41;;;22.06;49.51
80853;BME280;70270;43.434;28.338;2023-09-19T01:49:22;100471.44;;;22.08;49.51
80853;BME280;70270;43.434;28.338;2023-09-19T01:52:14;100466.75;;;22.09;49.69
80853;BME280;70270;43.434;28.338;2023-09-19T01:55:09;100441.00;;;21.93;49.40
80853;BME280;70270;43.434;28.338;2023-09-19T01:58:25;100473.66;;;22.06;49.65
80853;BME280;70270;43.434;28.338;2023-09-19T02:01:16;100456.50;;;21.99;49.57
80853;BME280;70270;43.434;28.338;2023-09-19T02:04:04;100472.53;;;22.07;49.69
80853;BME280;70270;43.434;28.338;2023-09-19T02:06:49;100368.94;;;21.42;49.45
80853;BME280;70270;43.434;28.338;2023-09-19T02:09:33;100480.78;;;21.97;49.39
80853;BME280;70270;43.434;28.338;2023-09-19T02:12:19;100471.41;;;21.98;49.72
80853;BME280;70270;43.434;28.338;2023-09-19T02:15:04;100484.69;;;22.06;49.27
80853;BME280;70270;43.434;28.338;2023-09-19T02:17:53;100476.69;;;22.05;49.04
80853;BME280;70270;43.434;28.338;2023-09-19T02:20:41;100478.06;;;22.02;49.22
80853;BME280;70270;43.434;28.338;2023-09-19T02:23:27;100476.63;;;22.00;49.28
80853;BME280;70270;43.434;28.338;2023-09-19T02:26:11;100389.88;;;21.38;49.39
80853;BME280;70270;43.434;28.338;2023-09-19T02:28:59;100459.09;;;21.74;49.73
80853;BME280;70270;43.434;28.338;2023-09-19T02:31:45;100475.69;;;21.84;49.86
80853;BME280;70270;43.434;28.338;2023-09-19T02:34:30;100467.31;;;21.69;50.12
80853;BME280;70270;43.434;28.338;2023-09-19T02:37:15;100349.31;;;20.97;50.38
80853;BME280;70270;43.434;28.338;2023-09-19T02:40:00;100384.50;;;21.17;50.31
80853;BME280;70270;43.434;28.338;2023-09-19T02:42:46;100483.03;;;21.68;50.21
80853;BME280;70270;43.434;28.338;2023-09-19T02:45:33;100463.97;;;21.67;50.56
80853;BME280;70270;43.434;28.338;2023-09-19T02:48:19;100469.25;;;21.68;50.21
80853;BME280;70270;43.434;28.338;2023-09-19T02:51:04;100473.13;;;21.72;50.03
80853;BME280;70270;43.434;28.338;2023-09-19T02:53:50;100461.25;;;21.72;50.57
80853;BME280;70270;43.434;28.338;2023-09-19T02:56:37;100455.50;;;21.73;50.47
80853;BME280;70270;43.434;28.338;2023-09-19T02:59:22;100336.09;;;20.99;50.67
80853;BME280;70270;43.434;28.338;2023-09-19T03:02:06;100459.59;;;21.71;50.72
80853;BME280;70270;43.434;28.338;2023-09-19T03:04:52;100446.09;;;21.69;50.34
80853;BME280;70270;43.434;28.338;2023-09-19T03:07:36;100456.34;;;21.79;50.16
80853;BME280;70270;43.434;28.338;2023-09-19T03:10:22;100449.72;;;21.80;50.19
80853;BME280;70270;43.434;28.338;2023-09-19T03:13:07;100366.38;;;21.26;50.28
80853;BME280;70270;43.434;28.338;2023-09-19T03:15:54;100455.25;;;21.80;50.33
80853;BME280;70270;43.434;28.338;2023-09-19T03:18:43;100430.28;;;21.60;50.40
80853;BME280;70270;43.434;28.338;2023-09-19T03:21:29;100456.31;;;21.74;50.64
80853;BME280;70270;43.434;28.338;2023-09-19T03:24:15;100451.13;;;21.82;50.65
80853;BME280;70270;43.434;28.338;2023-09-19T03:26:59;100461.84;;;21.79;50.73
80853;BME280;70270;43.434;28.338;2023-09-19T03:29:44;100442.16;;;21.60;50.94
80853;BME280;70270;43.434;28.338;2023-09-19T03:32:28;100359.91;;;21.10;50.87
80853;BME280;70270;43.434;28.338;2023-09-19T03:35:13;100347.75;;;21.06;51.23
80853;BME280;70270;43.434;28.338;2023-09-19T03:37:59;100466.84;;;21.82;51.26
80853;BME280;70270;43.434;28.338;2023-09-19T03:40:44;100454.84;;;21.61;51.66
80853;BME280;70270;43.434;28.338;2023-09-19T03:43:31;100460.72;;;21.75;51.64
80853;BME280;70270;43.434;28.338;2023-09-19T03:46:18;100462.94;;;21.73;51.70
80853;BME280;70270;43.434;28.338;2023-09-19T03:49:04;100472.34;;;21.77;51.38
80853;BME280;70270;43.434;28.338;2023-09-19T03:51:49;100415.22;;;21.30;51.50
80853;BME280;70270;43.434;28.338;2023-09-19T03:54:33;100478.88;;;21.66;51.49
80853;BME280;70270;43.434;28.338;2023-09-19T03:57:17;100448.41;;;21.51;51.62
80853;BME280;70270;43.434;28.338;2023-09-19T04:00:05;100473.03;;;21.57;51.57
80853;BME280;70270;43.434;28.338;2023-09-19T04:02:56;100470.28;;;21.57;51.70
80853;BME280;70270;43.434;28.338;2023-09-19T04:05:41;100475.78;;;21.57;51.59
80853;BME280;70270;43.434;28.338;2023-09-19T04:08:25;100429.47;;;21.22;51.91
80853;BME280;70270;43.434;28.338;2023-09-19T04:11:10;100462.38;;;21.39;51.95
80853;BME280;70270;43.434;28.338;2023-09-19T04:13:55;100426.44;;;21.24;51.88
80853;BME280;70270;43.434;28.338;2023-09-19T04:16:40;100472.75;;;21.59;52.05
80853;BME280;70270;43.434;28.338;2023-09-19T04:19:26;100476.09;;;21.61;52.09
80853;BME280;70270;43.434;28.338;2023-09-19T04:22:11;100466.97;;;21.60;52.03
80853;BME280;70270;43.434;28.338;2023-09-19T04:24:56;100467.75;;;21.56;52.06
80853;BME280;70270;43.434;28.338;2023-09-19T04:27:41;100457.63;;;21.61;51.93
80853;BME280;70270;43.434;28.338;2023-09-19T04:30:26;100460.72;;;21.75;51.83
80853;BME280;70270;43.434;28.338;2023-09-19T04:33:11;100438.94;;;21.73;51.80
80853;BME280;70270;43.434;28.338;2023-09-19T04:35:58;100269.22;;;20.72;51.69
80853;BME280;70270;43.434;28.338;2023-09-19T04:38:43;100450.69;;;21.96;51.82
80853;BME280;70270;43.434;28.338;2023-09-19T04:41:28;100441.88;;;22.04;51.72
80853;BME280;70270;43.434;28.338;2023-09-19T04:44:12;100440.81;;;22.10;51.57
80853;BME280;70270;43.434;28.338;2023-09-19T04:46:57;100443.38;;;22.21;51.42
80853;BME280;70270;43.434;28.338;2023-09-19T04:49:44;100469.06;;;22.32;50.99
80853;BME280;70270;43.434;28.338;2023-09-19T04:52:30;100354.31;;;21.89;51.19
80853;BME280;70270;43.434;28.338;2023-09-19T04:55:15;100422.44;;;22.40;51.30
80853;BME280;70270;43.434;28.338;2023-09-19T04:58:02;100421.13;;;22.58;50.97
80853;BME280;70270;43.434;28.338;2023-09-19T05:00:48;100438.31;;;22.80;51.02
80853;BME280;70270;43.434;28.338;2023-09-19T05:03:32;100449.66;;;22.99;50.43
80853;BME280;70270;43.434;28.338;2023-09-19T05:06:17;100351.78;;;22.60;50.20
80853;BME280;70270;43.434;28.338;2023-09-19T05:09:02;100439.75;;;23.33;49.84
80853;BME280;70270;43.434;28.338;2023-09-19T05:11:49;100441.97;;;23.52;49.49
80853;BME280;70270;43.434;28.338;2023-09-19T05:14:35;100441.13;;;23.61;49.25
80853;BME280;70270;43.434;28.338;2023-09-19T05:17:20;100443.03;;;23.81;49.17
80853;BME280;70270;43.434;28.338;2023-09-19T05:20:04;100415.63;;;23.90;48.54
80853;BME280;70270;43.434;28.338;2023-09-19T05:23:04;100297.03;;;23.32;48.80
80853;BME280;70270;43.434;28.338;2023-09-19T05:25:51;100318.03;;;23.59;48.63
80853;BME280;70270;43.434;28.338;2023-09-19T05:28:35;100390.88;;;24.13;48.84
80853;BME280;70270;43.434;28.338;2023-09-19T05:31:20;100425.41;;;24.36;48.72
80853;BME280;70270;43.434;28.338;2023-09-19T05:34:05;100394.16;;;24.31;48.72
80853;BME280;70270;43.434;28.338;2023-09-19T05:36:50;100427.84;;;24.48;48.74
80853;BME280;70270;43.434;28.338;2023-09-19T05:39:38;100387.50;;;24.32;48.80
80853;BME280;70270;43.434;28.338;2023-09-19T05:42:24;100240.00;;;23.57;48.85
80853;BME280;70270;43.434;28.338;2023-09-19T05:45:08;100431.00;;;24.85;48.87
80853;BME280;70270;43.434;28.338;2023-09-19T05:48:07;100311.31;;;24.34;48.54
80853;BME280;70270;43.434;28.338;2023-09-19T05:50:52;100422.50;;;25.10;48.06
80853;BME280;70270;43.434;28.338;2023-09-19T05:53:36;100319.66;;;24.68;47.87
80853;BME280;70270;43.434;28.338;2023-09-19T05:56:21;100386.81;;;25.28;47.26
80853;BME280;70270;43.434;28.338;2023-09-19T05:59:05;100411.59;;;25.53;46.99
80853;BME280;70270;43.434;28.338;2023-09-19T06:01:49;100426.28;;;25.82;47.22
80853;BME280;70270;43.434;28.338;2023-09-19T06:04:36;100322.69;;;25.34;46.45
80853;BME280;70270;43.434;28.338;2023-09-19T06:07:23;100429.47;;;26.18;46.38
80853;BME280;70270;43.434;28.338;2023-09-19T06:10:10;100420.75;;;26.30;45.97
80853;BME280;70270;43.434;28.338;2023-09-19T06:12:54;100411.75;;;26.38;45.76
80853;BME280;70270;43.434;28.338;2023-09-19T06:15:42;100405.47;;;26.51;45.62
80853;BME280;70270;43.434;28.338;2023-09-19T06:18:27;100418.97;;;26.76;44.90
80853;BME280;70270;43.434;28.338;2023-09-19T06:21:14;100367.59;;;26.55;45.27
80853;BME280;70270;43.434;28.338;2023-09-19T06:23:58;100414.03;;;27.11;44.32
80853;BME280;70270;43.434;28.338;2023-09-19T06:26:43;100425.16;;;27.11;44.00
80853;BME280;70270;43.434;28.338;2023-09-19T06:29:28;100402.06;;;27.10;43.94
80853;BME280;70270;43.434;28.338;2023-09-19T06:32:12;100425.25;;;27.38;43.30
80853;BME280;70270;43.434;28.338;2023-09-19T06:34:57;100426.31;;;27.42;43.56
80853;BME280;70270;43.434;28.338;2023-09-19T06:37:43;100329.25;;;26.89;43.36
80853;BME280;70270;43.434;28.338;2023-09-19T06:40:28;100423.88;;;27.54;43.55
80853;BME280;70270;43.434;28.338;2023-09-19T06:43:15;100408.47;;;27.75;43.10
80853;BME280;70270;43.434;28.338;2023-09-19T06:46:02;100415.91;;;27.93;42.92
80853;BME280;70270;43.434;28.338;2023-09-19T06:48:48;100455.16;;;28.11;42.50
80853;BME280;70270;43.434;28.338;2023-09-19T06:51:33;100429.84;;;28.34;42.33
80853;BME280;70270;43.434;28.338;2023-09-19T06:54:18;100447.81;;;28.42;42.06
80853;BME280;70270;43.434;28.338;2023-09-19T06:57:03;100447.28;;;28.54;41.99
80853;BME280;70270;43.434;28.338;2023-09-19T06:59:47;100445.09;;;28.64;41.90
80853;BME280;70270;43.434;28.338;2023-09-19T07:02:32;100446.44;;;28.80;41.61
80853;BME280;70270;43.434;28.338;2023-09-19T07:05:16;100435.47;;;28.84;40.96
80853;BME280;70270;43.434;28.338;2023-09-19T07:08:03;100448.06;;;28.95;40.42
80853;BME280;70270;43.434;28.338;2023-09-19T07:10:47;100364.00;;;28.61;40.50
80853;BME280;70270;43.434;28.338;2023-09-19T07:13:37;100432.13;;;29.18;40.31
80853;BME280;70270;43.434;28.338;2023-09-19T07:16:22;100445.44;;;29.21;40.07
80853;BME280;70270;43.434;28.338;2023-09-19T07:19:13;100448.13;;;29.04;40.45
80853;BME280;70270;43.434;28.338;2023-09-19T07:21:59;100352.16;;;28.55;40.76
80853;BME280;70270;43.434;28.338;2023-09-19T07:24:46;100427.06;;;29.20;40.05
80853;BME280;70270;43.434;28.338;2023-09-19T07:27:32;100340.75;;;28.79;40.06
80853;BME280;70270;43.434;28.338;2023-09-19T07:30:17;100350.03;;;29.19;39.30
80853;BME280;70270;43.434;28.338;2023-09-19T07:33:02;100429.91;;;29.73;38.21
80853;BME280;70270;43.434;28.338;2023-09-19T07:35:48;100421.38;;;29.78;38.17
80853;BME280;70270;43.434;28.338;2023-09-19T07:38:32;100450.44;;;29.99;38.20
80853;BME280;70270;43.434;28.338;2023-09-19T07:41:19;100410.78;;;29.89;38.58
80853;BME280;70270;43.434;28.338;2023-09-19T07:44:05;100433.84;;;30.03;37.68
80853;BME280;70270;43.434;28.338;2023-09-19T07:46:49;100421.41;;;30.09;38.01
80853;BME280;70270;43.434;28.338;2023-09-19T07:49:35;100406.75;;;29.81;37.78
80853;BME280;70270;43.434;28.338;2023-09-19T07:52:19;100441.09;;;29.82;38.28
80853;BME280;70270;43.434;28.338;2023-09-19T07:55:06;100449.50;;;29.82;37.83
80853;BME280;70270;43.434;28.338;2023-09-19T07:57:57;100431.78;;;29.55;38.68
80853;BME280;70270;43.434;28.338;2023-09-19T08:00:43;100435.41;;;29.56;38.74
80853;BME280;70270;43.434;28.338;2023-09-19T08:03:27;100406.81;;;29.28;38.61
80853;BME280;70270;43.434;28.338;2023-09-19T08:06:11;100417.81;;;28.89;40.31
80853;BME280;70270;43.434;28.338;2023-09-19T08:08:57;100320.00;;;28.35;39.67
80853;BME280;70270;43.434;28.338;2023-09-19T08:11:42;100317.22;;;28.71;38.59
80853;BME280;70270;43.434;28.338;2023-09-19T08:14:26;100420.53;;;29.47;37.65
80853;BME280;70270;43.434;28.338;2023-09-19T08:17:11;100421.56;;;29.82;38.06
80853;BME280;70270;43.434;28.338;2023-09-19T08:19:56;100413.50;;;30.11;36.94
80853;BME280;70270;43.434;28.338;2023-09-19T08:22:41;100412.47;;;30.46;36.45
80853;BME280;70270;43.434;28.338;2023-09-19T08:25:26;100377.94;;;30.68;35.62
80853;BME280;70270;43.434;28.338;2023-09-19T08:28:11;100409.66;;;30.46;35.29
80853;BME280;70270;43.434;28.338;2023-09-19T08:31:04;100403.94;;;30.69;35.79
80853;BME280;70270;43.434;28.338;2023-09-19T08:33:49;100399.03;;;29.03;37.98
80853;BME280;70270;43.434;28.338;2023-09-19T08:36:35;100393.13;;;29.26;38.29
80853;BME280;70270;43.434;28.338;2023-09-19T08:39:22;100364.22;;;28.64;39.39
80853;BME280;70270;43.434;28.338;2023-09-19T08:42:06;100373.66;;;28.55;39.91
80853;BME280;70270;43.434;28.338;2023-09-19T08:44:51;100382.66;;;28.38;41.11
80853;BME280;70270;43.434;28.338;2023-09-19T08:47:45;100371.75;;;28.14;40.71
80853;BME280;70270;43.434;28.338;2023-09-19T08:50:30;100305.16;;;28.13;40.40
80853;BME280;70270;43.434;28.338;2023-09-19T08:53:16;100386.59;;;28.87;39.83
80853;BME280;70270;43.434;28.338;2023-09-19T08:56:07;100385.47;;;29.32;39.29
80853;BME280;70270;43.434;28.338;2023-09-19T08:58:59;100373.47;;;29.62;38.32
80853;BME280;70270;43.434;28.338;2023-09-19T09:01:44;100374.84;;;29.73;38.12
80853;BME280;70270;43.434;28.338;2023-09-19T09:04:30;100376.84;;;30.12;37.97
80853;BME280;70270;43.434;28.338;2023-09-19T09:07:15;100370.63;;;30.33;37.14
80853;BME280;70270;43.434;28.338;2023-09-19T09:10:02;100286.03;;;29.93;36.87
80853;BME280;70270;43.434;28.338;2023-09-19T09:12:50;100372.22;;;30.08;36.69
80853;BME280;70270;43.434;28.338;2023-09-19T09:15:38;100364.75;;;29.95;37.60
80853;BME280;70270;43.434;28.338;2023-09-19T09:18:25;100364.28;;;29.93;38.40
80853;BME280;70270;43.434;28.338;2023-09-19T09:21:10;100373.66;;;29.97;38.23
80853;BME280;70270;43.434;28.338;2023-09-19T09:23:54;100340.84;;;29.80;39.21
80853;BME280;70270;43.434;28.338;2023-09-19T09:29:44;100352.66;;;29.38;40.28
80853;BME280;70270;43.434;28.338;2023-09-19T09:32:31;100337.97;;;28.65;41.36
80853;BME280;70270;43.434;28.338;2023-09-19T09:35:19;100352.34;;;28.59;42.12
80853;BME280;70270;43.434;28.338;2023-09-19T09:38:05;100351.81;;;28.57;42.12
80853;BME280;70270;43.434;28.338;2023-09-19T09:40:56;100173.31;;;27.27;42.34
80853;BME280;70270;43.434;28.338;2023-09-19T09:44:14;100331.28;;;28.17;43.54
80853;BME280;70270;43.434;28.338;2023-09-19T09:47:03;100369.25;;;28.13;44.07
80853;BME280;70270;43.434;28.338;2023-09-19T09:50:06;100355.03;;;28.14;44.34
80853;BME280;70270;43.434;28.338;2023-09-19T09:53:02;100341.41;;;28.13;44.46
80853;BME280;70270;43.434;28.338;2023-09-19T09:56:07;100338.28;;;28.28;43.69
80853;BME280;70270;43.434;28.338;2023-09-19T09:58:53;100266.50;;;28.11;43.57
80853;BME280;70270;43.434;28.338;2023-09-19T10:01:46;100237.09;;;27.91;43.61
80853;BME280;70270;43.434;28.338;2023-09-19T10:04:32;100352.84;;;28.74;43.36
80853;BME280;70270;43.434;28.338;2023-09-19T10:07:28;100348.78;;;29.03;42.39
80853;BME280;70270;43.434;28.338;2023-09-19T10:10:35;100343.72;;;28.82;43.39
80853;BME280;70270;43.434;28.338;2023-09-19T10:13:38;100330.97;;;28.54;43.69
80853;BME280;70270;43.434;28.338;2023-09-19T10:16:29;100335.09;;;28.70;43.38
80853;BME280;70270;43.434;28.338;2023-09-19T10:19:21;100256.91;;;28.40;42.61
80853;BME280;70270;43.434;28.338;2023-09-19T10:22:08;100338.06;;;28.38;43.65
80853;BME280;70270;43.434;28.338;2023-09-19T10:24:57;100292.78;;;27.37;44.78
80853;BME280;70270;43.434;28.338;2023-09-19T10:27:42;100327.56;;;27.07;46.36
80853;BME280;70270;43.434;28.338;2023-09-19T10:30:28;100334.53;;;26.91;47.03
80853;BME280;70270;43.434;28.338;2023-09-19T10:33:15;100253.97;;;26.67;46.72
80853;BME280;70270;43.434;28.338;2023-09-19T10:36:00;100307.69;;;27.14;45.29
80853;BME280;70270;43.434;28.338;2023-09-19T10:38:45;100274.91;;;26.46;45.76
80853;BME280;70270;43.434;28.338;2023-09-19T10:41:35;100296.16;;;26.56;45.27
80853;BME280;70270;43.434;28.338;2023-09-19T10:44:23;100310.22;;;26.96;45.26
80853;BME280;70270;43.434;28.338;2023-09-19T10:47:09;100315.03;;;26.72;44.07
80853;BME280;70270;43.434;28.338;2023-09-19T10:49:55;100313.34;;;26.58;44.83
80853;BME280;70270;43.434;28.338;2023-09-19T10:52:40;100305.19;;;26.47;45.07
80853;BME280;70270;43.434;28.338;2023-09-19T10:55:27;100325.47;;;26.80;43.70
80853;BME280;70270;43.434;28.338;2023-09-19T10:58:12;100308.72;;;27.18;44.41
80853;BME280;70270;43.434;28.338;2023-09-19T11:01:08;100247.75;;;26.57;43.75
80853;BME280;70270;43.434;28.338;2023-09-19T11:04:26;100299.94;;;26.78;44.35
80853;BME280;70270;43.434;28.338;2023-09-19T11:07:14;100229.56;;;26.32;43.96
80853;BME280;70270;43.434;28.338;2023-09-19T11:09:59;100291.06;;;26.76;43.62
80853;BME280;70270;43.434;28.338;2023-09-19T11:27:13;100271.25;;;26.32;45.99
80853;BME280;70270;43.434;28.338;2023-09-19T11:30:27;100275.94;;;26.50;46.75
80853;BME280;70270;43.434;28.338;2023-09-19T11:33:21;100276.34;;;26.94;45.02
80853;BME280;70270;43.434;28.338;2023-09-19T11:36:34;100263.44;;;26.66;43.71
80853;BME280;70270;43.434;28.338;2023-09-19T11:39:26;100288.38;;;26.71;43.79
80853;BME280;70270;43.434;28.338;2023-09-19T11:42:43;100288.34;;;26.39;44.29
80853;BME280;70270;43.434;28.338;2023-09-19T11:48:34;100203.34;;;25.63;45.96
80853;BME280;70270;43.434;28.338;2023-09-19T11:51:21;100287.53;;;25.96;46.95
80853;BME280;70270;43.434;28.338;2023-09-19T11:54:11;100285.81;;;25.81;47.29
80853;BME280;70270;43.434;28.338;2023-09-19T11:57:20;100287.75;;;25.81;47.17
80853;BME280;70270;43.434;28.338;2023-09-19T12:00:05;100301.31;;;26.06;46.04
80853;BME280;70270;43.434;28.338;2023-09-19T12:02:58;100272.09;;;25.90;46.41
80853;BME280;70270;43.434;28.338;2023-09-19T12:05:47;100282.53;;;25.98;46.96
80853;BME280;70270;43.434;28.338;2023-09-19T12:08:32;100281.75;;;25.92;47.39
80853;BME280;70270;43.434;28.338;2023-09-19T12:11:17;100222.75;;;25.63;47.17
80853;BME280;70270;43.434;28.338;2023-09-19T12:14:02;100257.91;;;25.91;47.90
80853;BME280;70270;43.434;28.338;2023-09-19T12:16:53;100291.41;;;26.19;47.28
80853;BME280;70270;43.434;28.338;2023-09-19T12:19:58;100274.41;;;26.01;47.61
80853;BME280;70270;43.434;28.338;2023-09-19T12:22:46;100278.59;;;25.80;47.73
80853;BME280;70270;43.434;28.338;2023-09-19T12:25:42;100276.97;;;25.79;47.86
80853;BME280;70270;43.434;28.338;2023-09-19T12:28:30;100265.97;;;25.69;48.13
80853;BME280;70270;43.434;28.338;2023-09-19T12:31:18;100261.84;;;25.43;47.72
80853;BME280;70270;43.434;28.338;2023-09-19T12:34:03;100168.41;;;25.14;47.94
80853;BME280;70270;43.434;28.338;2023-09-19T12:36:48;100264.78;;;25.75;47.76
80853;BME280;70270;43.434;28.338;2023-09-19T12:39:33;100261.75;;;25.95;46.81
80853;BME280;70270;43.434;28.338;2023-09-19T12:42:23;100259.75;;;26.20;44.68
80853;BME280;70270;43.434;28.338;2023-09-19T12:45:08;100269.19;;;26.19;45.33
80853;BME280;70270;43.434;28.338;2023-09-19T12:48:19;100256.53;;;26.31;44.88
80853;BME280;70270;43.434;28.338;2023-09-19T12:51:17;100246.41;;;26.54;42.69
80853;BME280;70270;43.434;28.338;2023-09-19T12:54:06;100215.22;;;26.57;43.57
80853;BME280;70270;43.434;28.338;2023-09-19T12:56:52;100221.44;;;27.00;42.16
80853;BME280;70270;43.434;28.338;2023-09-19T12:59:38;100266.88;;;27.09;42.60
80853;BME280;70270;43.434;28.338;2023-09-19T13:02:22;100215.22;;;26.57;43.54
80853;BME280;70270;43.434;28.338;2023-09-19T13:05:08;100247.03;;;26.83;43.28
80853;BME280;70270;43.434;28.338;2023-09-19T13:07:54;100252.47;;;26.56;43.79
80853;BME280;70270;43.434;28.338;2023-09-19T13:11:01;100251.28;;;26.94;42.43
80853;BME280;70270;43.434;28.338;2023-09-19T13:13:48;100240.94;;;27.27;41.70
80853;BME280;70270;43.434;28.338;2023-09-19T13:16:33;100248.09;;;26.87;42.91
80853;BME280;70270;43.434;28.338;2023-09-19T13:19:41;100200.97;;;26.45;43.30
80853;BME280;70270;43.434;28.338;2023-09-19T13:22:39;100259.34;;;26.77;43.75
80853;BME280;70270;43.434;28.338;2023-09-19T13:25:26;100237.66;;;26.47;43.60
80853;BME280;70270;43.434;28.338;2023-09-19T13:28:13;100231.69;;;26.53;44.07
80853;BME280;70270;43.434;28.338;2023-09-19T13:30:58;100219.31;;;26.08;44.15
80853;BME280;70270;43.434;28.338;2023-09-19T13:33:44;100236.34;;;26.58;43.67
80853;BME280;70270;43.434;28.338;2023-09-19T13:36:29;100229.97;;;26.90;41.94
80853;BME280;70270;43.434;28.338;2023-09-19T13:39:17;100148.78;;;25.91;42.90
80853;BME280;70270;43.434;28.338;2023-09-19T13:42:01;100248.47;;;26.30;44.42
80853;BME280;70270;43.434;28.338;2023-09-19T13:44:47;100205.81;;;26.21;44.46
80853;BME280;70270;43.434;28.338;2023-09-19T13:47:32;100230.13;;;26.29;43.86
80853;BME280;70270;43.434;28.338;2023-09-19T13:50:16;100251.88;;;25.84;45.12
80853;BME280;70270;43.434;28.338;2023-09-19T13:53:10;100252.25;;;25.96;44.13
80853;BME280;70270;43.434;28.338;2023-09-19T13:55:55;100229.91;;;26.44;43.21
80853;BME280;70270;43.434;28.338;2023-09-19T13:58:40;100245.09;;;26.65;42.85
80853;BME280;70270;43.434;28.338;2023-09-19T14:01:26;100221.13;;;26.37;43.20
80853;BME280;70270;43.434;28.338;2023-09-19T14:04:11;100232.22;;;26.37;43.54
80853;BME280;70270;43.434;28.338;2023-09-19T14:06:55;100240.72;;;26.45;43.85
80853;BME280;70270;43.434;28.338;2023-09-19T14:09:41;100222.78;;;26.38;43.31
80853;BME280;70270;43.434;28.338;2023-09-19T14:12:25;100228.75;;;26.64;42.78
80853;BME280;70270;43.434;28.338;2023-09-19T14:15:10;100236.69;;;26.70;43.08
80853;BME280;70270;43.434;28.338;2023-09-19T14:17:58;100237.72;;;26.74;43.05
80853;BME280;70270;43.434;28.338;2023-09-19T14:20:43;100240.59;;;27.02;42.78
80853;BME280;70270;43.434;28.338;2023-09-19T14:23:28;100143.84;;;26.39;43.06
80853;BME280;70270;43.434;28.338;2023-09-19T14:26:12;100236.84;;;26.92;43.38
80853;BME280;70270;43.434;28.338;2023-09-19T14:28:57;100133.00;;;26.24;42.53
80853;BME280;70270;43.434;28.338;2023-09-19T14:31:42;100236.66;;;26.89;42.64
80853;BME280;70270;43.434;28.338;2023-09-19T14:34:27;100236.47;;;26.67;43.15
80853;BME280;70270;43.434;28.338;2023-09-19T14:37:11;100233.47;;;26.63;43.20
80853;BME280;70270;43.434;28.338;2023-09-19T14:39:56;100241.81;;;26.63;42.63
80853;BME280;70270;43.434;28.338;2023-09-19T14:42:40;100243.63;;;26.54;42.40
80853;BME280;70270;43.434;28.338;2023-09-19T14:45:25;100214.88;;;26.45;42.95
80853;BME280;70270;43.434;28.338;2023-09-19T14:48:09;100211.44;;;26.99;41.88
80853;BME280;70270;43.434;28.338;2023-09-19T14:50:54;100237.81;;;27.29;41.76
80853;BME280;70270;43.434;28.338;2023-09-19T14:53:40;100129.03;;;26.57;41.40
80853;BME280;70270;43.434;28.338;2023-09-19T14:56:25;100228.75;;;27.37;40.91
80853;BME280;70270;43.434;28.338;2023-09-19T14:59:09;100225.25;;;27.18;41.69